Time;durP1;ratioP1;P1;durP2;ratioP2;P2;SDS_P1;SDS_P2;PMS_P1;PMS_P2;Temp;Humidity;BMP_temperature;BMP_pressure;BME280_temperature;BME280_humidity;BME280_pressure;Samples;Min_cycle;Max_cycle;Signal;HPM_P1;HPM_P2
2022/05/15 00:05:02;;;;;;;22.22;12.85;;;;;;;9.62;65.51;100615.29;3404054;83;21477;-77
2022/05/15 00:09:54;;;;;;;22.10;13.50;;;;;;;9.51;65.78;100623.77;3361295;84;20943;-77
2022/05/15 00:14:47;;;;;;;18.67;8.85;;;;;;;9.51;65.78;100623.77;3289343;83;21034;-77
2022/05/15 00:19:38;;;;;;;12.73;8.20;;;;;;;9.49;66.22;100628.02;3388446;83;20952;-77
2022/05/15 00:24:29;;;;;;;11.88;6.37;;;;;;;9.48;66.15;100630.19;3367819;84;20967;-77
2022/05/15 00:29:21;;;;;;;16.73;7.30;;;;;;;9.46;66.33;100630.58;3429804;82;20987;-77
2022/05/15 00:34:12;;;;;;;13.53;6.95;;;;;;;9.46;66.10;100627.09;3415705;82;21002;-77
2022/05/15 00:39:06;;;;;;;11.93;6.40;;;;;;;9.46;66.16;100634.48;3347105;84;20988;-77
2022/05/15 00:43:59;;;;;;;11.60;5.90;;;;;;;9.47;66.11;100637.50;3411484;83;20970;-77
2022/05/15 00:48:52;;;;;;;8.08;5.37;;;;;;;9.44;66.49;100619.27;3347760;82;21503;-77
2022/05/15 00:53:47;;;;;;;8.30;4.25;;;;;;;9.58;66.49;100630.36;3373755;82;20935;-77
2022/05/15 00:58:43;;;;;;;8.75;4.30;;;;;;;9.55;66.52;100632.48;3377173;82;21511;-77
2022/05/15 01:03:34;;;;;;;10.25;4.17;;;;;;;9.61;66.54;100630.43;3437542;81;21114;-77
2022/05/15 01:08:28;;;;;;;6.92;3.72;;;;;;;9.70;66.48;100633.20;3421474;82;21587;-77
2022/05/15 01:13:23;;;;;;;7.92;3.17;;;;;;;9.83;66.74;100631.27;3342682;81;20935;-77
2022/05/15 01:18:22;;;;;;;13.18;4.08;;;;;;;9.96;66.52;100625.88;3414758;81;20878;-77
2022/05/15 01:23:15;;;;;;;4.05;2.90;;;;;;;10.03;66.37;100620.37;3415012;82;21010;-77
2022/05/15 01:28:20;;;;;;;6.08;3.60;;;;;;;10.12;65.99;100628.32;3370230;83;21217;-77
2022/05/15 01:33:11;;;;;;;8.40;3.45;;;;;;;10.13;65.96;100626.19;3399080;81;20964;-77
2022/05/15 01:38:04;;;;;;;10.30;3.47;;;;;;;10.11;65.93;100642.17;3418653;83;21026;-77
2022/05/15 01:42:55;;;;;;;8.03;3.20;;;;;;;10.07;65.85;100632.16;3394553;83;21015;-77
2022/05/15 01:47:47;;;;;;;8.75;2.75;;;;;;;10.07;65.85;100632.16;3359447;84;20987;-77
2022/05/15 01:52:41;;;;;;;5.15;2.60;;;;;;;10.07;65.79;100640.38;3347092;84;21076;-77
2022/05/15 01:57:33;;;;;;;6.65;2.90;;;;;;;10.01;65.93;100642.85;3411231;83;21026;-77
2022/05/15 02:02:24;;;;;;;4.85;2.70;;;;;;;9.93;65.97;100644.02;3406025;83;20931;-77
2022/05/15 02:07:16;;;;;;;5.80;2.75;;;;;;;9.93;65.97;100644.02;3348665;84;21010;-77
2022/05/15 02:12:08;;;;;;;7.50;3.37;;;;;;;9.86;65.69;100646.92;3364707;83;20988;-77
2022/05/15 02:16:59;;;;;;;6.90;3.37;;;;;;;9.73;65.98;100644.95;3339655;84;21935;-77
2022/05/15 02:21:50;;;;;;;6.55;3.02;;;;;;;9.73;65.98;100644.95;3384266;82;20954;-77
2022/05/15 02:26:42;;;;;;;9.08;2.90;;;;;;;9.70;65.43;100646.18;3412086;82;20994;-77
2022/05/15 02:31:33;;;;;;;5.58;2.75;;;;;;;9.48;65.83;100652.25;3437503;81;20966;-77
2022/05/15 02:36:25;;;;;;;8.53;2.70;;;;;;;9.28;65.71;100644.45;3478849;81;20936;-77
2022/05/15 02:41:16;;;;;;;5.33;2.67;;;;;;;9.28;65.71;100644.45;3464527;81;21956;-77
2022/05/15 02:46:08;;;;;;;5.85;2.55;;;;;;;9.18;66.14;100649.88;3440394;82;21002;-77
2022/05/15 02:51:05;;;;;;;8.23;3.77;;;;;;;8.97;66.61;100663.25;3414626;82;20966;-77
2022/05/15 02:55:57;;;;;;;6.97;3.20;;;;;;;8.97;66.61;100663.25;3434275;81;20911;-77
2022/05/15 03:00:48;;;;;;;6.40;3.02;;;;;;;8.90;66.58;100662.66;3447214;81;20998;-77
2022/05/15 03:05:39;;;;;;;4.97;2.27;;;;;;;8.88;66.72;100668.23;3464122;82;20922;-77
2022/05/15 03:10:29;;;;;;;5.40;3.10;;;;;;;8.82;66.78;100665.47;3399936;82;21657;-77
2022/05/15 03:15:21;;;;;;;6.90;2.72;;;;;;;8.82;66.94;100669.36;3414102;82;21567;-77
2022/05/15 03:20:16;;;;;;;6.53;3.42;;;;;;;8.85;67.20;100670.73;3472726;81;20974;-77
2022/05/15 03:25:08;;;;;;;6.87;3.10;;;;;;;8.89;67.18;100669.96;3389433;81;21430;-77
2022/05/15 03:30:00;;;;;;;6.42;3.15;;;;;;;8.95;67.34;100675.30;3381794;82;23563;-77
2022/05/15 03:34:51;;;;;;;7.10;3.27;;;;;;;9.20;67.58;100674.56;3421902;81;20977;-77
2022/05/15 03:39:42;;;;;;;6.65;2.92;;;;;;;9.20;67.58;100674.56;3426425;81;20924;-77
2022/05/15 03:44:33;;;;;;;5.67;3.55;;;;;;;9.58;67.35;100679.68;3431800;81;20947;-77
2022/05/15 03:49:24;;;;;;;5.47;2.60;;;;;;;9.99;66.69;100686.11;3430879;82;20980;-77
2022/05/15 03:54:15;;;;;;;7.58;2.12;;;;;;;10.13;66.48;100689.84;3501120;81;21146;-77
2022/05/15 03:59:07;;;;;;;6.75;2.42;;;;;;;10.13;66.48;100689.84;3445791;81;21552;-77
2022/05/15 04:03:59;;;;;;;4.05;2.30;;;;;;;10.24;66.43;100690.90;3414291;81;20999;-77
2022/05/15 04:08:51;;;;;;;6.90;2.60;;;;;;;10.24;66.45;100697.39;3458099;81;20993;-77
2022/05/15 04:13:42;;;;;;;7.25;2.25;;;;;;;10.25;66.46;100694.39;3436113;81;21049;-77
2022/05/15 04:18:35;;;;;;;5.05;2.70;;;;;;;10.34;66.35;100704.08;3396355;81;21201;-77
2022/05/15 04:23:27;;;;;;;5.58;2.45;;;;;;;10.33;66.63;100703.22;3443228;81;20904;-77
2022/05/15 04:28:18;;;;;;;6.60;3.05;;;;;;;10.38;66.47;100710.67;3414275;81;20903;-77
2022/05/15 04:33:10;;;;;;;3.62;2.35;;;;;;;10.62;66.09;100710.23;3397814;82;20955;-77
2022/05/15 04:38:01;;;;;;;8.08;3.20;;;;;;;10.59;65.99;100707.58;3419764;82;20999;-77
2022/05/15 04:42:52;;;;;;;6.33;2.70;;;;;;;10.73;65.73;100708.21;3408139;82;20993;-77
2022/05/15 04:47:45;;;;;;;7.95;3.00;;;;;;;10.73;65.73;100708.21;3400314;82;21398;-77
2022/05/15 04:52:36;;;;;;;6.17;2.77;;;;;;;10.75;65.49;100716.91;3402959;82;21519;-77
2022/05/15 04:57:27;;;;;;;11.23;2.97;;;;;;;10.75;65.49;100716.91;3449102;81;21747;-77
2022/05/15 05:02:18;;;;;;;7.97;2.40;;;;;;;10.86;65.27;100727.08;3447694;81;21459;-77
2022/05/15 05:07:09;;;;;;;4.87;1.97;;;;;;;10.88;65.27;100707.17;3417153;81;20995;-77
2022/05/15 05:12:00;;;;;;;7.42;2.17;;;;;;;10.97;64.92;100729.42;3429079;81;21972;-77
2022/05/15 05:16:52;;;;;;;5.37;2.08;;;;;;;11.00;64.55;100725.57;3424516;81;20926;-77
2022/05/15 05:21:43;;;;;;;7.28;2.08;;;;;;;11.06;64.39;100726.08;3441453;81;20934;-77
2022/05/15 05:26:34;;;;;;;8.53;2.97;;;;;;;11.10;63.79;100731.77;3404950;82;21705;-77
2022/05/15 05:31:25;;;;;;;6.60;2.30;;;;;;;11.17;63.34;100737.95;3408545;81;21936;-77
2022/05/15 05:36:17;;;;;;;6.75;1.90;;;;;;;11.24;63.38;100735.89;3436304;81;20982;-77
2022/05/15 05:41:08;;;;;;;3.05;2.10;;;;;;;11.40;62.77;100732.64;3438951;81;20977;-77
2022/05/15 05:46:00;;;;;;;8.78;2.58;;;;;;;11.52;62.13;100736.26;3427106;81;21472;-77
2022/05/15 05:50:51;;;;;;;4.85;1.82;;;;;;;11.64;61.60;100740.33;3416393;81;22094;-77
2022/05/15 05:55:42;;;;;;;6.62;2.42;;;;;;;12.15;59.96;100741.85;3420871;81;21211;-77
2022/05/15 06:00:40;;;;;;;6.95;1.90;;;;;;;12.27;59.66;100742.83;3455153;81;20955;-77
2022/05/15 06:05:31;;;;;;;4.53;2.40;;;;;;;13.02;57.86;100743.93;3428011;81;21393;-77
2022/05/15 06:10:22;;;;;;;3.80;1.20;;;;;;;13.24;57.52;100738.01;3368965;81;21748;-78
2022/05/15 06:15:13;;;;;;;4.58;1.65;;;;;;;13.67;56.63;100739.58;3473107;81;21151;-78
2022/05/15 06:20:09;;;;;;;4.53;1.93;;;;;;;15.41;52.83;100738.92;3407890;81;20869;-78
2022/05/15 06:25:00;;;;;;;6.65;2.20;;;;;;;15.41;52.83;100738.92;3441540;81;21011;-78
2022/05/15 06:29:51;;;;;;;3.60;1.67;;;;;;;17.46;49.93;100745.49;3405824;82;20937;-78
2022/05/15 06:34:42;;;;;;;7.22;2.30;;;;;;;16.84;50.62;100738.64;3452973;82;21006;-78
2022/05/15 06:39:33;;;;;;;3.97;1.93;;;;;;;16.80;50.24;100751.34;3432340;81;20924;-78
2022/05/15 06:44:24;;;;;;;3.87;1.87;;;;;;;16.30;50.23;100759.55;3451903;82;21449;-78
2022/05/15 06:49:15;;;;;;;3.92;1.60;;;;;;;15.72;50.73;100755.84;3474317;82;20963;-78
2022/05/15 06:54:07;;;;;;;4.10;1.33;;;;;;;15.55;50.47;100759.84;3440100;81;21001;-78
2022/05/15 06:58:59;;;;;;;6.05;1.65;;;;;;;15.60;50.59;100756.33;3420160;81;20919;-78
2022/05/15 07:03:50;;;;;;;7.90;1.77;;;;;;;16.95;48.60;100757.80;3475040;82;20962;-78
2022/05/15 07:08:42;;;;;;;3.30;1.45;;;;;;;16.62;47.76;100775.98;3413561;81;21543;-78
2022/05/15 07:13:33;;;;;;;3.75;1.47;;;;;;;17.14;47.50;100755.43;3431995;81;21499;-78
2022/05/15 07:18:24;;;;;;;3.92;1.45;;;;;;;17.49;46.37;100752.90;3406224;81;20947;-79
2022/05/15 07:23:15;;;;;;;3.65;1.80;;;;;;;18.42;44.63;100756.56;3443001;82;21077;-78
2022/05/15 07:28:07;;;;;;;3.80;1.72;;;;;;;19.07;44.32;100777.09;3417608;83;20995;-79
2022/05/15 07:32:58;;;;;;;5.20;2.20;;;;;;;21.21;40.94;100770.75;3390870;83;21146;-79
2022/05/15 07:37:49;;;;;;;4.70;2.20;;;;;;;23.77;38.59;100766.75;3402019;82;22440;-80
2022/05/15 07:42:41;;;;;;;6.20;2.10;;;;;;;27.64;35.86;100756.94;3393607;82;20957;-78
2022/05/15 07:47:33;;;;;;;4.85;2.15;;;;;;;27.88;35.26;100765.90;3495586;80;21063;-77
2022/05/15 07:52:24;;;;;;;3.47;1.67;;;;;;;25.67;34.82;100770.09;3450712;80;20930;-78
2022/05/15 07:57:16;;;;;;;5.65;1.90;;;;;;;24.87;34.76;100776.66;3428921;80;21064;-77
2022/05/15 08:02:07;;;;;;;4.17;1.42;;;;;;;22.98;36.02;100784.51;3475805;80;21743;-77
2022/05/15 08:12:10;;;;;;;5.28;1.87;;;;;;;21.13;37.68;100785.94;3482108;80;21862;-79
2022/05/15 08:17:01;;;;;;;3.25;1.65;;;;;;;21.10;37.59;100793.93;3463795;80;20942;-79
2022/05/15 08:27:04;;;;;;;5.20;2.02;;;;;;;20.78;37.89;100799.55;3436277;81;20982;-79
2022/05/15 08:31:55;;;;;;;4.15;1.92;;;;;;;22.49;36.57;100790.09;3402855;81;21527;-79
2022/05/15 08:36:46;;;;;;;5.10;2.05;;;;;;;22.06;35.97;100792.23;3507128;81;20996;-79
2022/05/15 08:41:47;;;;;;;4.33;1.63;;;;;;;23.08;35.30;100787.30;3462835;80;20975;-79
2022/05/15 08:47:10;;;;;;;4.03;1.72;;;;;;;21.26;36.40;100803.20;3444559;81;21632;-80
2022/05/15 08:52:28;;;;;;;1.92;1.62;;;;;;;22.45;36.00;100796.80;3491278;81;20977;-79
2022/05/15 08:57:55;;;;;;;3.98;2.00;;;;;;;21.06;36.78;100802.86;3479604;81;21550;-79
2022/05/15 09:02:47;;;;;;;2.25;1.35;;;;;;;21.10;37.56;100811.11;3502363;81;20950;-79
2022/05/15 09:07:52;;;;;;;5.25;1.70;;;;;;;20.65;37.53;100806.91;3429584;81;21449;-78
2022/05/15 09:12:49;;;;;;;2.60;1.65;;;;;;;21.06;36.96;100809.00;3480141;81;21201;-79
2022/05/15 09:18:02;;;;;;;2.42;1.57;;;;;;;22.97;35.34;100806.66;3508139;81;21453;-79
2022/05/15 09:23:34;;;;;;;6.53;2.37;;;;;;;24.20;33.98;100810.74;3492466;81;20955;-79
2022/05/15 09:28:29;;;;;;;2.90;1.80;;;;;;;22.62;34.13;100828.52;3460196;81;20973;-80
2022/05/15 09:33:56;;;;;;;3.65;1.95;;;;;;;24.80;32.03;100824.38;3456109;81;21025;-81
2022/05/15 09:38:51;;;;;;;5.03;1.90;;;;;;;27.38;30.47;100823.28;3474320;80;21080;-80
2022/05/15 09:43:50;;;;;;;2.67;1.90;;;;;;;24.96;31.69;100832.12;3481082;80;21450;-81
2022/05/15 09:49:03;;;;;;;3.55;1.60;;;;;;;28.28;28.77;100819.39;3480563;81;22318;-80
2022/05/15 09:53:57;;;;;;;3.58;2.42;;;;;;;26.02;30.17;100831.59;3451738;80;21469;-80
2022/05/15 09:58:57;;;;;;;5.85;2.17;;;;;;;28.16;28.86;100829.42;3414052;81;20979;-81
2022/05/15 10:03:52;;;;;;;4.53;2.08;;;;;;;28.01;28.70;100824.45;3449800;80;21680;-80
2022/05/15 10:08:43;;;;;;;3.22;1.70;;;;;;;27.13;28.91;100830.31;3438047;80;20988;-80
2022/05/15 10:13:52;;;;;;;3.80;1.82;;;;;;;28.31;27.80;100830.37;3485397;81;21005;-81
2022/05/15 10:18:54;;;;;;;4.20;1.60;;;;;;;28.60;26.89;100826.56;3451349;81;20989;-80
2022/05/15 10:23:52;;;;;;;7.80;2.05;;;;;;;26.85;28.29;100845.48;3464691;80;20919;-81
2022/05/15 10:29:04;;;;;;;6.37;2.00;;;;;;;28.28;27.66;100825.22;3492021;80;21385;-80
2022/05/15 10:34:01;;;;;;;6.55;2.02;;;;;;;26.43;28.45;100839.91;3516518;80;21513;-80
2022/05/15 10:39:10;;;;;;;3.50;1.87;;;;;;;23.94;30.47;100847.98;3491045;80;21016;-80
2022/05/15 10:44:39;;;;;;;3.50;1.55;;;;;;;26.46;29.00;100838.44;3480241;80;20965;-80
2022/05/15 10:49:42;;;;;;;3.40;1.60;;;;;;;26.44;28.35;100840.31;3501459;81;21490;-80
2022/05/15 11:00:12;;;;;;;4.90;2.22;;;;;;;27.80;27.41;100831.77;3507187;80;20975;-80
2022/05/15 11:05:21;;;;;;;2.25;1.40;;;;;;;28.08;27.61;100823.17;3472004;80;20926;-80
2022/05/15 11:10:27;;;;;;;2.92;1.95;;;;;;;27.43;27.49;100819.50;3439275;81;20969;-79
2022/05/15 11:15:57;;;;;;;2.65;1.27;;;;;;;25.33;28.83;100828.43;3469626;80;20946;-80
2022/05/15 11:21:00;;;;;;;2.92;1.95;;;;;;;24.83;29.41;100829.58;3511136;79;21598;-80
2022/05/15 11:26:03;;;;;;;7.17;2.33;;;;;;;24.47;30.42;100819.45;3490835;80;20946;-80
2022/05/15 11:31:18;;;;;;;4.17;1.95;;;;;;;23.11;30.42;100830.07;3409736;81;21089;-79
2022/05/15 11:36:24;;;;;;;4.95;2.12;;;;;;;22.51;32.36;100829.33;3491944;80;21158;-79
2022/05/15 11:41:39;;;;;;;2.67;2.07;;;;;;;22.46;32.23;100828.12;3460084;81;20927;-79
2022/05/15 11:46:51;;;;;;;3.33;1.62;;;;;;;22.73;32.96;100818.47;3513873;80;21436;-80
2022/05/15 11:51:47;;;;;;;4.25;2.42;;;;;;;23.27;32.60;100819.81;3476169;80;21534;-80
2022/05/15 11:56:52;;;;;;;4.03;1.60;;;;;;;23.40;32.08;100807.88;3448759;80;21001;-80
2022/05/15 12:01:57;;;;;;;3.60;2.05;;;;;;;23.53;32.08;100810.48;3467739;80;21022;-80
2022/05/15 12:07:00;;;;;;;5.25;1.47;;;;;;;23.15;32.04;100808.71;3461932;80;21515;-80
2022/05/15 12:11:57;;;;;;;3.02;1.60;;;;;;;22.09;32.24;100810.68;3506653;80;21601;-79
2022/05/15 12:17:12;;;;;;;1.92;1.60;;;;;;;21.42;32.76;100805.45;3435626;81;20979;-80
2022/05/15 12:22:08;;;;;;;3.77;1.75;;;;;;;22.18;33.39;100800.28;3483266;81;20971;-80
2022/05/15 12:27:25;;;;;;;4.95;1.90;;;;;;;22.61;33.18;100810.91;3405788;81;20986;-80
2022/05/15 12:32:37;;;;;;;1.65;1.40;;;;;;;22.85;33.17;100794.19;3455367;81;21156;-79
2022/05/15 12:37:33;;;;;;;2.40;1.40;;;;;;;23.15;32.28;100800.75;3424019;81;21057;-79
2022/05/15 12:42:41;;;;;;;3.33;1.52;;;;;;;23.11;31.31;100788.53;3436920;81;29481;-79
2022/05/15 12:47:33;;;;;;;4.10;1.62;;;;;;;22.85;32.51;100785.38;3426674;81;20922;-79
2022/05/15 12:52:32;;;;;;;1.82;1.27;;;;;;;23.19;31.80;100777.18;3424675;82;21521;-79
2022/05/15 12:57:24;;;;;;;3.42;1.62;;;;;;;23.32;31.99;100776.31;3422971;81;21053;-79
2022/05/15 13:02:32;;;;;;;5.83;1.50;;;;;;;22.04;31.70;100784.33;3416262;81;21790;-79
2022/05/15 13:07:26;;;;;;;2.55;1.42;;;;;;;22.62;33.21;100772.44;3466915;81;20998;-79
2022/05/15 13:12:18;;;;;;;3.40;1.30;;;;;;;22.90;32.01;100777.29;3441704;81;21620;-79
2022/05/15 13:17:12;;;;;;;4.25;2.00;;;;;;;22.01;31.61;100780.44;3427397;81;21291;-78
2022/05/15 13:22:04;;;;;;;3.90;1.47;;;;;;;21.64;32.89;100774.02;3452021;81;22163;-79
2022/05/15 13:26:58;;;;;;;5.22;1.62;;;;;;;22.00;33.41;100777.40;3361606;83;22120;-79
2022/05/15 13:31:54;;;;;;;5.78;1.77;;;;;;;21.30;32.58;100776.22;3314048;82;21002;-79
2022/05/15 13:36:52;;;;;;;3.27;1.40;;;;;;;21.21;33.95;100764.14;3436307;81;21026;-79
2022/05/15 13:47:14;;;;;;;2.42;1.30;;;;;;;20.82;33.67;100773.50;3352169;83;21041;-79
2022/05/15 13:52:33;;;;;;;2.77;1.62;;;;;;;20.92;34.67;100761.77;3340929;83;21026;-79
2022/05/15 13:57:28;;;;;;;4.33;1.50;;;;;;;21.68;33.47;100760.67;3327333;83;21441;-79
2022/05/15 14:02:24;;;;;;;4.53;1.57;;;;;;;22.35;32.54;100767.53;3432002;82;20928;-79
2022/05/15 14:07:35;;;;;;;3.00;1.25;;;;;;;22.64;32.83;100760.00;3409883;82;21022;-79
2022/05/15 14:12:48;;;;;;;4.15;1.50;;;;;;;22.93;32.56;100752.88;3391730;81;21016;-79
2022/05/15 14:17:48;;;;;;;3.30;1.12;;;;;;;23.11;31.99;100742.55;3389766;83;21769;-83
2022/05/15 14:22:40;;;;;;;3.20;1.37;;;;;;;23.25;31.19;100756.67;3394626;80;20962;-82
2022/05/15 14:27:32;;;;;;;3.17;1.50;;;;;;;23.25;32.03;100756.67;3452270;80;21029;-82
2022/05/15 14:32:32;;;;;;;4.92;1.98;;;;;;;22.93;31.00;100745.35;3452702;80;21021;-81
2022/05/15 14:37:24;;;;;;;4.67;1.75;;;;;;;23.05;32.05;100742.31;3430211;80;20982;-82
2022/05/15 14:42:16;;;;;;;3.77;1.87;;;;;;;22.95;31.86;100730.28;3463790;80;22002;-81
2022/05/15 14:47:14;;;;;;;4.85;1.95;;;;;;;22.77;32.49;100743.23;3454312;80;20993;-82
2022/05/15 14:52:07;;;;;;;2.33;1.45;;;;;;;22.70;31.51;100731.11;3505694;80;20960;-82
2022/05/15 14:57:02;;;;;;;2.37;1.20;;;;;;;22.61;31.99;100742.02;3461062;80;20992;-83
2022/05/15 15:01:53;;;;;;;3.70;1.30;;;;;;;22.50;32.75;100736.17;3478942;80;21217;-83
2022/05/15 15:06:46;;;;;;;2.22;1.00;;;;;;;22.18;32.56;100739.38;3407427;81;21196;-82
2022/05/15 15:11:50;;;;;;;2.90;1.05;;;;;;;22.07;32.42;100741.89;3455281;80;21826;-82
2022/05/15 15:16:46;;;;;;;2.87;1.27;;;;;;;21.97;32.66;100740.42;3479655;80;36702;-82
2022/05/15 15:21:38;;;;;;;1.82;0.95;;;;;;;21.63;31.83;100729.97;3484058;81;20916;-82
2022/05/15 15:26:29;;;;;;;3.47;1.30;;;;;;;20.69;32.67;100740.34;3450628;80;21821;-82
2022/05/15 15:31:24;;;;;;;3.60;1.22;;;;;;;20.55;32.99;100735.38;3399932;80;21037;-83
2022/05/15 15:36:16;;;;;;;2.72;1.10;;;;;;;20.88;32.98;100735.02;3405072;82;21022;-82
2022/05/15 15:41:12;;;;;;;3.10;1.30;;;;;;;21.09;32.62;100734.06;3412369;81;21424;-82
2022/05/15 15:46:06;;;;;;;1.87;1.35;;;;;;;21.16;32.39;100730.34;3368353;82;20994;-82
2022/05/15 15:51:18;;;;;;;3.22;1.90;;;;;;;21.20;32.57;100713.48;3381066;82;20938;-82
2022/05/15 15:56:11;;;;;;;3.27;1.27;;;;;;;21.26;32.67;100711.12;3438886;81;21084;-82
2022/05/15 16:01:02;;;;;;;4.08;1.52;;;;;;;21.27;32.70;100717.69;3401785;82;21370;-82
2022/05/15 16:05:57;;;;;;;3.22;1.72;;;;;;;21.38;32.62;100725.33;3436298;81;21354;-82
2022/05/15 16:10:46;;;;;;;3.70;1.05;;;;;;;21.24;32.51;100725.70;3413600;81;20940;-82
2022/05/15 16:15:37;;;;;;;2.05;1.42;;;;;;;21.34;32.76;100728.98;3367473;82;20978;-82
2022/05/15 16:20:51;;;;;;;2.50;1.95;;;;;;;21.28;32.18;100716.80;3379252;82;21066;-82
2022/05/15 16:25:43;;;;;;;3.72;1.42;;;;;;;21.27;31.79;100724.77;3389750;83;20943;-82
2022/05/15 16:30:34;;;;;;;1.20;1.10;;;;;;;21.15;32.34;100728.59;3307295;83;21002;-82
2022/05/15 16:35:25;;;;;;;1.87;1.30;;;;;;;21.13;32.46;100727.77;3351363;83;21044;-82
2022/05/15 16:40:18;;;;;;;2.10;1.45;;;;;;;21.03;32.35;100732.88;3377392;83;21082;-82
2022/05/15 16:45:18;;;;;;;3.85;1.25;;;;;;;20.72;32.23;100721.78;3368078;83;20967;-82
2022/05/15 16:50:16;;;;;;;2.80;1.80;;;;;;;20.66;32.66;100729.88;3381902;83;21483;-81
2022/05/15 16:55:08;;;;;;;6.15;1.82;;;;;;;20.21;32.80;100733.53;3393768;83;21007;-82
2022/05/15 16:59:59;;;;;;;4.10;1.55;;;;;;;20.05;32.65;100740.91;3312532;83;20998;-82
2022/05/15 17:04:50;;;;;;;2.77;1.80;;;;;;;20.00;33.12;100740.14;3353741;83;21084;-82
2022/05/15 17:09:41;;;;;;;3.35;1.50;;;;;;;19.95;33.63;100740.23;3341883;83;20971;-82
2022/05/15 17:14:32;;;;;;;2.45;1.10;;;;;;;19.84;33.08;100744.02;3356069;83;22008;-82
2022/05/15 17:19:26;;;;;;;4.72;1.92;;;;;;;19.67;33.46;100743.86;3306543;83;23152;-82
2022/05/15 17:24:27;;;;;;;8.28;4.90;;;;;;;19.40;33.81;100746.59;3392820;82;20965;-82
2022/05/15 17:34:20;;;;;;;6.33;2.17;;;;;;;19.09;34.12;100746.30;3350903;83;21397;-82
2022/05/15 17:39:12;;;;;;;6.45;3.87;;;;;;;18.81;34.44;100752.00;3423324;83;21389;-81
2022/05/15 17:44:03;;;;;;;6.03;3.35;;;;;;;18.54;34.82;100755.48;3389196;81;21396;-81
2022/05/15 17:48:54;;;;;;;3.10;2.40;;;;;;;18.28;35.00;100754.12;3402275;81;20991;-82
2022/05/15 17:53:45;;;;;;;2.98;1.90;;;;;;;18.05;35.44;100754.44;3334241;82;20952;-81
2022/05/15 17:58:37;;;;;;;4.37;2.83;;;;;;;17.87;35.81;100757.31;3308395;83;21065;-81
2022/05/15 18:03:28;;;;;;;15.18;3.85;;;;;;;17.64;36.46;100753.61;3333386;82;20956;-82
2022/05/15 18:08:19;;;;;;;4.40;2.42;;;;;;;17.46;36.94;100755.55;3338327;83;21689;-81
2022/05/15 18:13:10;;;;;;;3.98;1.80;;;;;;;17.27;37.82;100765.83;3309364;84;20963;-81
2022/05/15 18:18:01;;;;;;;12.70;2.45;;;;;;;17.03;38.32;100773.05;3330824;82;20970;-81
2022/05/15 18:22:57;;;;;;;18.25;3.00;;;;;;;16.75;39.29;100774.55;3333338;84;21574;-81
2022/05/15 18:27:46;;;;;;;9.63;2.17;;;;;;;16.46;40.50;100777.83;3371266;82;20931;-81
2022/05/15 18:32:41;;;;;;;7.17;2.08;;;;;;;16.21;40.25;100776.66;3367058;83;21040;-81
2022/05/15 18:37:32;;;;;;;6.58;3.52;;;;;;;15.96;41.36;100787.25;3407528;82;21544;-81
2022/05/15 18:42:24;;;;;;;6.67;2.52;;;;;;;15.70;41.35;100786.44;3349478;83;21128;-81
2022/05/15 18:47:15;;;;;;;6.80;2.30;;;;;;;15.48;41.48;100798.73;3385916;82;20997;-81
2022/05/15 18:57:18;;;;;;;6.05;2.60;;;;;;;15.02;42.61;100807.48;3380519;83;20977;-81
2022/05/15 19:02:09;;;;;;;3.67;2.80;;;;;;;14.80;42.94;100807.48;3361996;81;21515;-81
2022/05/15 19:07:00;;;;;;;6.00;3.10;;;;;;;14.59;44.03;100815.30;3375819;82;21013;-81
2022/05/15 19:11:51;;;;;;;5.67;2.90;;;;;;;14.38;43.99;100827.44;3353588;82;21391;-81
2022/05/15 19:16:42;;;;;;;6.90;3.12;;;;;;;14.19;44.32;100824.31;3398422;82;23400;-81
2022/05/15 19:21:33;;;;;;;6.20;3.20;;;;;;;13.95;44.47;100824.66;3377643;82;20999;-81
2022/05/15 19:26:25;;;;;;;7.70;3.17;;;;;;;13.77;45.15;100820.62;3370733;82;20938;-81
2022/05/15 19:31:17;;;;;;;7.72;4.05;;;;;;;13.61;45.65;100824.47;3396804;82;20983;-81
2022/05/15 19:36:08;;;;;;;8.45;5.97;;;;;;;13.48;46.07;100833.08;3397787;82;21002;-81
2022/05/15 19:41:00;;;;;;;15.70;8.30;;;;;;;13.26;46.61;100830.27;3393403;82;21473;-81
2022/05/15 19:45:51;;;;;;;21.87;10.80;;;;;;;13.15;46.54;100829.33;3346721;82;21319;-81
2022/05/15 19:50:43;;;;;;;24.55;11.85;;;;;;;12.99;47.06;100826.14;3393484;82;21425;-81
2022/05/15 19:55:35;;;;;;;20.48;10.68;;;;;;;12.81;47.42;100827.72;3410395;82;22162;-81
2022/05/15 20:00:27;;;;;;;22.73;10.63;;;;;;;12.59;48.42;100834.02;3397569;82;21276;-81
2022/05/15 20:15:40;;;;;;;13.28;7.50;;;;;;;12.21;49.42;100834.88;3364775;83;20964;-81
2022/05/15 20:20:32;;;;;;;17.60;7.28;;;;;;;12.14;49.67;100840.87;3396738;82;20978;-80
2022/05/15 20:25:23;;;;;;;17.27;6.33;;;;;;;12.07;49.89;100836.44;3388077;81;21508;-81
2022/05/15 20:30:14;;;;;;;12.50;6.70;;;;;;;12.11;50.28;100844.33;3391204;81;20994;-81
2022/05/15 20:35:07;;;;;;;15.45;6.53;;;;;;;12.15;50.33;100836.98;3418991;81;20982;-81
2022/05/15 20:39:58;;;;;;;11.63;4.97;;;;;;;12.13;50.28;100841.31;3416505;81;21006;-81
2022/05/15 20:44:50;;;;;;;8.13;4.10;;;;;;;12.13;50.74;100846.52;3412601;81;21047;-81
2022/05/15 20:49:41;;;;;;;12.18;6.15;;;;;;;12.05;50.82;100844.23;3412884;81;21053;-81
2022/05/15 20:54:36;;;;;;;11.90;7.10;;;;;;;12.01;51.52;100850.27;3366883;81;20978;-80
2022/05/15 20:59:27;;;;;;;14.85;6.58;;;;;;;12.03;51.52;100851.59;3400037;81;20943;-81
2022/05/15 21:04:19;;;;;;;24.20;9.18;;;;;;;11.99;51.94;100855.89;3409628;81;21034;-81
2022/05/15 21:09:10;;;;;;;16.87;7.80;;;;;;;11.92;51.69;100851.02;3393705;81;20967;-81
2022/05/15 21:14:01;;;;;;;17.23;8.88;;;;;;;11.87;51.94;100856.99;3440058;81;21208;-81
2022/05/15 21:18:52;;;;;;;25.37;10.75;;;;;;;11.74;52.25;100852.91;3377238;81;21479;-81
2022/05/15 21:23:43;;;;;;;19.50;9.45;;;;;;;11.61;52.52;100864.02;3377870;81;20978;-81
2022/05/15 21:28:36;;;;;;;30.10;10.60;;;;;;;11.52;52.91;100866.45;3395168;82;20938;-81
2022/05/15 21:33:27;;;;;;;19.85;10.25;;;;;;;11.51;53.42;100860.37;3431014;81;21246;-81
2022/05/15 21:43:32;;;;;;;20.43;10.53;;;;;;;11.39;53.82;100864.98;3443319;81;21741;-81
2022/05/15 21:48:24;;;;;;;26.33;13.38;;;;;;;11.34;54.16;100875.74;3427403;81;21024;-81
2022/05/15 21:53:16;;;;;;;17.00;8.33;;;;;;;11.34;54.54;100891.36;3459617;81;21516;-81
2022/05/15 21:58:11;;;;;;;20.88;9.25;;;;;;;11.31;54.99;100893.91;3420020;81;21437;-82
2022/05/15 22:03:04;;;;;;;25.55;13.78;;;;;;;11.25;55.03;100888.61;3403761;81;21250;-81
2022/05/15 22:08:07;;;;;;;17.48;9.98;;;;;;;11.18;55.25;100889.36;3448589;81;20986;-80
2022/05/15 22:12:58;;;;;;;18.67;8.90;;;;;;;11.09;55.40;100894.37;3397904;81;20927;-80
2022/05/15 22:17:49;;;;;;;12.70;5.70;;;;;;;11.01;55.72;100887.31;3421315;81;20902;-81
2022/05/15 22:22:40;;;;;;;11.25;5.67;;;;;;;11.03;55.49;100883.00;3457823;81;21181;-81
2022/05/15 22:27:33;;;;;;;13.28;5.37;;;;;;;11.03;55.36;100879.10;3443034;81;21216;-80
2022/05/15 22:32:26;;;;;;;10.03;4.58;;;;;;;10.99;55.55;100879.91;3431670;82;21004;-81
2022/05/15 22:37:25;;;;;;;7.58;3.83;;;;;;;11.00;55.81;100883.38;3428922;81;20990;-81
2022/05/15 22:42:16;;;;;;;15.43;4.85;;;;;;;10.95;56.17;100882.02;3482617;81;20944;-80
2022/05/15 22:47:08;;;;;;;15.28;5.58;;;;;;;10.92;55.89;100884.55;3442184;82;20998;-81
2022/05/15 22:51:59;;;;;;;10.03;5.37;;;;;;;10.88;56.25;100890.12;3410720;81;21160;-78
2022/05/15 22:56:50;;;;;;;10.82;4.55;;;;;;;10.86;56.12;100889.66;3432610;81;21033;-79
2022/05/15 23:01:41;;;;;;;12.05;5.42;;;;;;;10.79;56.35;100886.48;3428112;81;20968;-79
2022/05/15 23:11:42;;;;;;;10.18;5.08;;;;;;;10.80;56.41;100889.52;3446189;81;21429;-79
2022/05/15 23:16:33;;;;;;;9.73;5.47;;;;;;;10.73;56.99;100887.65;3439313;81;22543;-80
2022/05/15 23:21:24;;;;;;;11.50;6.17;;;;;;;10.63;56.98;100886.61;3423399;82;21481;-80
2022/05/15 23:26:16;;;;;;;14.83;6.20;;;;;;;10.54;56.82;100887.73;3408063;82;20970;-80
2022/05/15 23:31:10;;;;;;;8.50;5.17;;;;;;;10.42;56.88;100883.16;3358023;83;20901;-80
2022/05/15 23:36:01;;;;;;;9.58;6.15;;;;;;;10.29;57.46;100882.87;3320973;82;20984;-80
2022/05/15 23:40:52;;;;;;;8.73;5.33;;;;;;;10.20;57.27;100883.11;3402574;81;20994;-80
2022/05/15 23:45:43;;;;;;;10.45;5.80;;;;;;;10.13;57.44;100885.13;3401422;83;20959;-80